Time,TemperatureF,DewpointF,PressureIn,WindDirection,WindDirectionDegrees,WindSpeedMPH,WindSpeedGustMPH,Humidity,HourlyPrecipIn,Conditions,Clouds,dailyrainin,SoftwareType,DateUTC
2012-01-12 00:00:00,43.0,33.9,29.80,WNW,291,4.9,8.1,70,0.00,,,0.00,VWS V13.01,2012-01-12 06:00:00,
2012-01-12 00:05:00,43.0,34.2,29.80,NW,306,5.4,8.1,71,0.00,,,0.00,VWS V13.01,2012-01-12 06:05:00,
2012-01-12 00:10:00,42.8,34.4,29.80,West,266,5.8,10.5,72,0.00,,,0.00,VWS V13.01,2012-01-12 06:10:00,
2012-01-12 00:15:00,42.4,34.8,29.80,WNW,283,8.1,8.7,74,0.00,,,0.00,VWS V13.01,2012-01-12 06:15:00,
2012-01-12 00:20:00,42.1,34.7,29.80,WSW,239,8.1,12.8,75,0.00,,,0.00,VWS V13.01,2012-01-12 06:20:00,
2012-01-12 00:25:00,41.5,33.5,29.80,WSW,238,6.3,11.0,73,0.00,,,0.00,VWS V13.01,2012-01-12 06:25:00,
2012-01-12 00:30:00,40.8,31.5,29.80,NNW,333,12.8,13.2,69,0.00,,,0.00,VWS V13.01,2012-01-12 06:30:00,
2012-01-12 00:35:00,40.1,30.4,29.80,West,280,14.5,14.5,68,0.00,,,0.00,VWS V13.01,2012-01-12 06:35:00,
2012-01-12 00:40:00,39.6,29.5,29.80,NW,319,8.1,13.2,67,0.00,,,0.00,VWS V13.01,2012-01-12 06:40:00,
2012-01-12 00:45:00,39.6,29.9,29.80,West,268,5.4,8.3,68,0.00,,,0.00,VWS V13.01,2012-01-12 06:45:00,
2012-01-12 00:50:00,39.4,30.4,29.80,WNW,301,5.8,7.6,70,0.00,,,0.00,VWS V13.01,2012-01-12 06:50:00,
2012-01-12 00:55:00,39.4,30.1,29.80,West,265,10.5,13.2,69,0.00,,,0.00,VWS V13.01,2012-01-12 06:55:00,
2012-01-12 01:00:00,39.0,29.4,29.83,West,276,8.3,13.2,68,0.00,,,0.00,VWS V13.01,2012-01-12 07:00:00,
2012-01-12 01:05:00,38.8,29.5,29.83,West,263,5.8,5.8,69,0.00,,,0.00,VWS V13.01,2012-01-12 07:05:00,
2012-01-12 01:10:00,38.5,28.1,29.83,West,269,8.1,8.7,66,0.00,,,0.00,VWS V13.01,2012-01-12 07:10:00,
2012-01-12 01:15:00,38.3,28.0,29.83,WSW,246,11.0,16.3,66,0.00,,,0.00,VWS V13.01,2012-01-12 07:15:00,
2012-01-12 01:20:00,38.1,27.8,29.83,West,268,10.1,10.5,66,0.00,,,0.00,VWS V13.01,2012-01-12 07:20:00,
2012-01-12 01:25:00,38.1,27.8,29.83,West,260,5.4,7.6,66,0.00,,,0.00,VWS V13.01,2012-01-12 07:25:00,
2012-01-12 01:31:00,37.9,27.6,29.83,WNW,299,7.6,7.6,66,0.00,,,0.00,VWS V13.01,2012-01-12 07:31:00,
2012-01-12 01:36:00,37.6,26.9,29.83,NW,311,8.1,10.1,65,0.00,,,0.00,VWS V13.01,2012-01-12 07:36:00,
2012-01-12 01:41:00,37.2,26.5,29.83,West,265,8.3,10.5,65,0.00,,,0.00,VWS V13.01,2012-01-12 07:41:00,
2012-01-12 01:46:00,37.0,26.8,29.83,NW,312,8.7,8.7,66,0.00,,,0.00,VWS V13.01,2012-01-12 07:46:00,
2012-01-12 01:51:00,36.7,26.0,29.83,WNW,303,12.8,12.8,65,0.00,,,0.00,VWS V13.01,2012-01-12 07:51:00,
2012-01-12 01:56:00,36.3,25.3,29.83,NW,320,14.5,14.5,64,0.00,,,0.00,VWS V13.01,2012-01-12 07:56:00,
2012-01-12 02:01:00,36.1,25.5,29.86,WNW,284,7.6,7.6,65,0.00,,,0.00,VWS V13.01,2012-01-12 08:01:00,
2012-01-12 02:06:00,36.1,25.5,29.86,SW,228,12.8,12.8,65,0.00,,,0.00,VWS V13.01,2012-01-12 08:06:00,
2012-01-12 02:11:00,35.8,24.8,29.86,West,281,4.9,10.1,64,0.00,,,0.00,VWS V13.01,2012-01-12 08:11:00,
2012-01-12 02:16:00,35.6,24.3,29.86,WNW,299,6.3,10.5,63,0.00,,,0.00,VWS V13.01,2012-01-12 08:16:00,
2012-01-12 02:21:00,35.1,23.4,29.86,West,277,13.2,15.0,62,0.00,,,0.00,VWS V13.01,2012-01-12 08:21:00,
2012-01-12 02:26:00,34.7,23.0,29.86,WSW,250,17.0,17.0,62,0.00,,,0.00,VWS V13.01,2012-01-12 08:26:00,
2012-01-12 02:31:00,34.5,23.2,29.89,West,275,14.5,14.5,63,0.00,,,0.00,VWS V13.01,2012-01-12 08:31:00,
2012-01-12 02:36:00,34.0,21.6,29.89,West,259,15.4,18.3,60,0.00,,,0.00,VWS V13.01,2012-01-12 08:36:00,
2012-01-12 02:41:00,33.8,22.2,29.89,West,261,6.3,7.6,62,0.00,,,0.00,VWS V13.01,2012-01-12 08:41:00,
2012-01-12 02:46:00,33.6,21.6,29.86,NW,319,5.4,11.0,61,0.00,,,0.00,VWS V13.01,2012-01-12 08:46:00,
2012-01-12 02:51:00,33.3,21.7,29.86,WNW,291,4.0,6.3,62,0.00,,,0.00,VWS V13.01,2012-01-12 08:51:00,
2012-01-12 02:56:00,33.1,21.5,29.86,WNW,303,4.0,4.9,62,0.00,,,0.00,VWS V13.01,2012-01-12 08:56:00,
2012-01-12 03:01:00,33.1,21.5,29.89,West,265,9.6,9.6,62,0.00,,,0.00,VWS V13.01,2012-01-12 09:01:00,
2012-01-12 03:06:00,32.7,21.5,29.89,WNW,300,5.4,6.3,63,0.00,,,0.00,VWS V13.01,2012-01-12 09:06:00,
2012-01-12 03:11:00,32.5,21.7,29.89,NW,309,4.9,5.8,64,0.00,,,0.00,VWS V13.01,2012-01-12 09:11:00,
2012-01-12 03:16:00,32.5,21.7,29.89,WNW,287,5.4,5.8,64,0.00,,,0.00,VWS V13.01,2012-01-12 09:16:00,
2012-01-12 03:21:00,32.0,20.1,29.89,West,263,11.0,11.0,61,0.00,,,0.00,VWS V13.01,2012-01-12 09:21:00,
2012-01-12 03:26:00,31.5,19.6,29.89,NW,308,8.1,8.7,61,0.00,,,0.00,VWS V13.01,2012-01-12 09:26:00,
2012-01-12 03:31:00,31.5,20.3,29.89,WSW,254,7.2,7.2,63,0.00,,,0.00,VWS V13.01,2012-01-12 09:31:00,
2012-01-12 03:37:00,31.3,20.2,29.89,West,263,5.4,5.4,63,0.00,,,0.00,VWS V13.01,2012-01-12 09:37:00,
2012-01-12 03:42:00,31.3,20.2,29.89,WSW,250,7.6,8.3,63,0.00,,,0.00,VWS V13.01,2012-01-12 09:42:00,
2012-01-12 03:47:00,31.3,20.2,29.92,West,262,8.1,8.1,63,0.00,,,0.00,VWS V13.01,2012-01-12 09:47:00,
2012-01-12 03:52:00,31.3,20.2,29.92,WSW,257,8.3,8.3,63,0.00,,,0.00,VWS V13.01,2012-01-12 09:52:00,
2012-01-12 03:57:00,31.3,20.2,29.92,West,261,6.3,11.0,63,0.00,,,0.00,VWS V13.01,2012-01-12 09:57:00,
2012-01-12 04:02:00,31.3,19.8,29.92,WNW,288,10.5,11.0,62,0.00,,,0.00,VWS V13.01,2012-01-12 10:02:00,
2012-01-12 04:07:00,30.9,19.1,29.92,West,265,8.7,17.4,61,0.00,,,0.00,VWS V13.01,2012-01-12 10:07:00,
2012-01-12 04:11:00,30.7,18.9,29.92,West,273,8.3,14.5,61,0.00,,,0.00,VWS V13.01,2012-01-12 10:11:00,
2012-01-12 04:16:00,30.6,18.7,29.92,WNW,288,8.3,11.0,61,0.00,,,0.00,VWS V13.01,2012-01-12 10:16:00,
2012-01-12 04:22:00,30.6,19.5,29.92,WNW,288,8.1,8.1,63,0.00,,,0.00,VWS V13.01,2012-01-12 10:22:00,
2012-01-12 04:26:00,30.6,19.1,29.92,WSW,237,10.5,11.0,62,0.00,,,0.00,VWS V13.01,2012-01-12 10:26:00,
2012-01-12 04:31:00,30.6,19.1,29.92,West,261,8.1,10.1,62,0.00,,,0.00,VWS V13.01,2012-01-12 10:31:00,
2012-01-12 04:37:00,30.6,19.5,29.92,West,278,5.4,8.1,63,0.00,,,0.00,VWS V13.01,2012-01-12 10:37:00,
2012-01-12 04:42:00,30.4,18.9,29.92,WSW,240,6.3,9.6,62,0.00,,,0.00,VWS V13.01,2012-01-12 10:42:00,
2012-01-12 04:47:00,30.4,19.3,29.92,WNW,296,5.8,11.0,63,0.00,,,0.00,VWS V13.01,2012-01-12 10:47:00,
2012-01-12 04:52:00,30.4,18.9,29.92,West,261,8.3,11.9,62,0.00,,,0.00,VWS V13.01,2012-01-12 10:52:00,
2012-01-12 04:57:00,30.4,18.9,29.92,WNW,285,5.8,7.6,62,0.00,,,0.00,VWS V13.01,2012-01-12 10:57:00,
2012-01-12 05:02:00,30.2,18.8,29.92,West,266,6.3,12.3,62,0.00,,,0.00,VWS V13.01,2012-01-12 11:02:00,
2012-01-12 05:07:00,30.4,18.9,29.92,WNW,303,7.6,8.7,62,0.00,,,0.00,VWS V13.01,2012-01-12 11:07:00,
2012-01-12 05:12:00,30.2,18.8,29.92,West,263,8.3,10.1,62,0.00,,,0.00,VWS V13.01,2012-01-12 11:12:00,
2012-01-12 05:16:00,30.4,19.3,29.95,West,270,5.4,5.8,63,0.00,,,0.00,VWS V13.01,2012-01-12 11:16:00,
2012-01-12 05:22:00,30.2,19.1,29.95,West,272,15.4,15.4,63,0.00,,,0.00,VWS V13.01,2012-01-12 11:22:00,
2012-01-12 05:26:00,30.2,18.8,29.95,West,270,8.3,11.0,62,0.00,,,0.00,VWS V13.01,2012-01-12 11:26:00,
2012-01-12 05:31:00,30.4,18.9,29.92,WSW,256,10.1,10.5,62,0.00,,,0.00,VWS V13.01,2012-01-12 11:31:00,
2012-01-12 05:37:00,30.4,18.9,29.92,West,261,6.3,8.3,62,0.00,,,0.00,VWS V13.01,2012-01-12 11:37:00,
2012-01-12 05:42:00,30.4,18.9,29.92,WSW,255,7.6,11.9,62,0.00,,,0.00,VWS V13.01,2012-01-12 11:42:00,
2012-01-12 05:47:00,30.4,18.6,29.95,West,268,8.3,10.5,61,0.00,,,0.00,VWS V13.01,2012-01-12 11:47:00,
2012-01-12 05:52:00,30.4,18.6,29.95,West,269,8.3,8.3,61,0.00,,,0.00,VWS V13.01,2012-01-12 11:52:00,
2012-01-12 05:57:00,30.4,18.6,29.95,West,260,6.3,8.7,61,0.00,,,0.00,VWS V13.01,2012-01-12 11:57:00,
2012-01-12 06:02:00,30.4,19.3,29.95,WSW,244,6.3,10.5,63,0.00,,,0.00,VWS V13.01,2012-01-12 12:02:00,
2012-01-12 06:07:00,30.4,19.3,29.95,WSW,238,8.3,8.7,63,0.00,,,0.00,VWS V13.01,2012-01-12 12:07:00,
2012-01-12 06:12:00,30.4,19.3,29.95,SSW,211,5.8,7.2,63,0.00,,,0.00,VWS V13.01,2012-01-12 12:12:00,
2012-01-12 06:17:00,30.2,18.8,29.95,West,268,11.0,12.8,62,0.00,,,0.00,VWS V13.01,2012-01-12 12:17:00,
2012-01-12 06:22:00,30.0,17.4,29.95,NNW,327,17.4,17.4,59,0.00,,,0.00,VWS V13.01,2012-01-12 12:22:00,
2012-01-12 06:27:00,29.8,17.3,29.95,West,280,4.0,8.7,59,0.00,,,0.00,VWS V13.01,2012-01-12 12:27:00,
2012-01-12 06:32:00,29.7,16.7,29.95,West,275,9.6,9.6,58,0.00,,,0.00,VWS V13.01,2012-01-12 12:32:00,
2012-01-12 06:37:00,29.3,16.0,29.95,West,266,12.3,12.3,57,0.00,,,0.00,VWS V13.01,2012-01-12 12:37:00,
2012-01-12 06:42:00,29.1,16.2,29.95,West,261,6.3,13.2,58,0.00,,,0.00,VWS V13.01,2012-01-12 12:42:00,
2012-01-12 06:47:00,28.9,16.0,29.95,WSW,250,5.8,8.3,58,0.00,,,0.00,VWS V13.01,2012-01-12 12:47:00,
2012-01-12 06:52:00,28.9,16.0,29.95,WSW,258,5.4,6.3,58,0.00,,,0.00,VWS V13.01,2012-01-12 12:52:00,
2012-01-12 06:57:00,28.9,16.0,29.95,WSW,258,4.9,5.8,58,0.00,,,0.00,VWS V13.01,2012-01-12 12:57:00,
2012-01-12 07:02:00,28.9,16.0,29.98,WSW,257,8.7,11.9,58,0.00,,,0.00,VWS V13.01,2012-01-12 13:02:00,
2012-01-12 07:06:00,28.8,15.5,29.98,WSW,258,8.3,11.0,57,0.00,,,0.00,VWS V13.01,2012-01-12 13:06:00,
2012-01-12 07:11:00,28.6,15.3,29.98,SW,225,8.7,8.7,57,0.00,,,0.00,VWS V13.01,2012-01-12 13:11:00,
2012-01-12 07:16:00,28.4,15.1,29.95,WSW,242,8.7,12.3,57,0.00,,,0.00,VWS V13.01,2012-01-12 13:16:00,
2012-01-12 07:21:00,28.2,15.0,29.95,WSW,242,8.1,12.3,57,0.00,,,0.00,VWS V13.01,2012-01-12 13:21:00,
2012-01-12 07:26:00,28.0,14.8,29.95,WSW,239,12.8,17.4,57,0.00,,,0.00,VWS V13.01,2012-01-12 13:26:00,
2012-01-12 07:31:00,27.9,14.6,29.98,West,272,8.7,12.8,57,0.00,,,0.00,VWS V13.01,2012-01-12 13:31:00,
2012-01-12 07:36:00,27.7,14.0,29.98,West,265,15.4,15.4,56,0.00,,,0.00,VWS V13.01,2012-01-12 13:36:00,
2012-01-12 07:41:00,26.4,13.3,29.98,SW,236,10.5,12.8,57,0.00,,,0.00,VWS V13.01,2012-01-12 13:41:00,
2012-01-12 07:46:00,27.5,13.9,29.98,WSW,238,12.8,14.1,56,0.00,,,0.00,VWS V13.01,2012-01-12 13:46:00,
2012-01-12 07:51:00,27.5,13.9,29.98,WSW,251,7.6,10.5,56,0.00,,,0.00,VWS V13.01,2012-01-12 13:51:00,
2012-01-12 07:56:00,27.1,13.9,29.98,West,264,8.7,12.8,57,0.00,,,0.00,VWS V13.01,2012-01-12 13:56:00,
2012-01-12 08:01:00,27.0,13.8,29.98,West,262,8.7,8.7,57,0.00,,,0.00,VWS V13.01,2012-01-12 14:01:00,
2012-01-12 08:06:00,27.0,13.4,29.98,West,260,8.7,15.4,56,0.00,,,0.00,VWS V13.01,2012-01-12 14:06:00,
2012-01-12 08:11:00,27.1,13.5,29.98,WSW,238,8.7,12.3,56,0.00,,,0.00,VWS V13.01,2012-01-12 14:11:00,
2012-01-12 08:17:00,27.3,13.7,29.98,SW,229,10.5,15.4,56,0.00,,,0.00,VWS V13.01,2012-01-12 14:17:00,
2012-01-12 08:22:00,27.1,13.5,29.98,SW,236,12.8,17.4,56,0.00,,,0.00,VWS V13.01,2012-01-12 14:22:00,
2012-01-12 08:26:00,27.0,13.4,29.98,WSW,252,10.1,13.6,56,0.00,,,0.00,VWS V13.01,2012-01-12 14:26:00,
2012-01-12 08:32:00,27.1,13.5,29.98,WSW,242,13.2,13.6,56,0.00,,,0.00,VWS V13.01,2012-01-12 14:32:00,
2012-01-12 08:37:00,27.1,13.5,29.98,WSW,247,14.5,15.4,56,0.00,,,0.00,VWS V13.01,2012-01-12 14:37:00,
2012-01-12 08:42:00,27.0,13.4,29.98,WNW,283,11.0,15.4,56,0.00,,,0.00,VWS V13.01,2012-01-12 14:42:00,
2012-01-12 08:47:00,26.8,13.2,29.98,WSW,244,21.9,21.9,56,0.00,,,0.00,VWS V13.01,2012-01-12 14:47:00,
2012-01-12 08:52:00,27.0,13.4,29.98,WSW,258,12.8,15.0,56,0.00,,,0.00,VWS V13.01,2012-01-12 14:52:00,
2012-01-12 08:57:00,26.6,13.0,29.98,SW,225,12.8,18.3,56,0.00,,,0.00,VWS V13.01,2012-01-12 14:57:00,
2012-01-12 09:01:00,26.4,12.9,30.01,West,268,17.4,17.4,56,0.00,,,0.00,VWS V13.01,2012-01-12 15:01:00,
2012-01-12 09:06:00,26.1,12.1,30.01,West,269,12.8,17.9,55,0.00,,,0.00,VWS V13.01,2012-01-12 15:06:00,
2012-01-12 09:11:00,26.4,12.9,30.01,SW,228,5.8,6.3,56,0.00,,,0.00,VWS V13.01,2012-01-12 15:11:00,
2012-01-12 09:16:00,26.4,12.9,30.01,West,264,15.0,15.0,56,0.00,,,0.00,VWS V13.01,2012-01-12 15:16:00,
2012-01-12 09:21:00,26.4,12.5,30.01,SW,232,15.9,17.4,55,0.00,,,0.00,VWS V13.01,2012-01-12 15:21:00,
2012-01-12 09:26:00,26.4,12.5,30.01,West,263,10.1,15.0,55,0.00,,,0.00,VWS V13.01,2012-01-12 15:26:00,
2012-01-12 09:31:00,26.4,12.5,30.01,West,269,12.3,15.4,55,0.00,,,0.00,VWS V13.01,2012-01-12 15:31:00,
2012-01-12 09:37:00,26.8,12.4,30.01,WSW,258,17.4,17.4,54,0.00,,,0.00,VWS V13.01,2012-01-12 15:37:00,
2012-01-12 09:42:00,26.6,12.2,30.01,WSW,247,12.8,15.4,54,0.00,,,0.00,VWS V13.01,2012-01-12 15:42:00,
2012-01-12 09:47:00,26.6,12.2,30.01,West,270,11.0,13.2,54,0.00,,,0.00,VWS V13.01,2012-01-12 15:47:00,
2012-01-12 09:52:00,27.0,12.1,30.01,SW,227,12.8,23.7,53,0.00,,,0.00,VWS V13.01,2012-01-12 15:52:00,
2012-01-12 09:57:00,26.6,11.8,30.01,West,278,10.5,10.5,53,0.00,,,0.00,VWS V13.01,2012-01-12 15:57:00,
2012-01-12 10:02:00,26.8,12.0,30.01,West,259,17.0,17.0,53,0.00,,,0.00,VWS V13.01,2012-01-12 16:02:00,
2012-01-12 10:07:00,26.6,11.8,30.01,SW,217,6.3,11.0,53,0.00,,,0.00,VWS V13.01,2012-01-12 16:07:00,
2012-01-12 10:12:00,26.6,11.4,30.01,WSW,242,10.1,11.0,52,0.00,,,0.00,VWS V13.01,2012-01-12 16:12:00,
2012-01-12 10:17:00,26.6,10.9,30.01,West,270,15.9,21.5,51,0.00,,,0.00,VWS V13.01,2012-01-12 16:17:00,
2012-01-12 10:22:00,26.6,11.4,30.01,SW,234,19.2,19.2,52,0.00,,,0.00,VWS V13.01,2012-01-12 16:22:00,
2012-01-12 10:27:00,27.0,11.7,30.01,WSW,256,13.6,15.4,52,0.00,,,0.00,VWS V13.01,2012-01-12 16:27:00,
2012-01-12 10:32:00,26.8,10.6,30.01,West,272,11.9,13.6,50,0.00,,,0.00,VWS V13.01,2012-01-12 16:32:00,
2012-01-12 10:37:00,27.0,10.8,30.01,WSW,239,8.1,15.4,50,0.00,,,0.00,VWS V13.01,2012-01-12 16:37:00,
2012-01-12 10:42:00,27.1,11.0,30.01,WSW,253,9.6,15.0,50,0.00,,,0.00,VWS V13.01,2012-01-12 16:42:00,
2012-01-12 10:47:00,27.0,10.8,30.01,WSW,242,17.0,17.0,50,0.00,,,0.00,VWS V13.01,2012-01-12 16:47:00,
2012-01-12 10:52:00,27.0,10.8,30.01,WSW,239,17.0,23.3,50,0.00,,,0.00,VWS V13.01,2012-01-12 16:52:00,
2012-01-12 10:57:00,27.0,10.8,30.01,WSW,257,13.2,13.2,50,0.00,,,0.00,VWS V13.01,2012-01-12 16:57:00,
2012-01-12 11:02:00,27.1,11.0,30.01,West,269,11.9,18.3,50,0.00,,,0.00,VWS V13.01,2012-01-12 17:02:00,
2012-01-12 11:07:00,27.3,11.1,30.01,SW,227,11.0,21.5,50,0.00,,,0.00,VWS V13.01,2012-01-12 17:07:00,
2012-01-12 11:12:00,27.3,11.1,30.01,West,261,10.5,12.8,50,0.00,,,0.00,VWS V13.01,2012-01-12 17:12:00,
2012-01-12 11:17:00,27.9,11.6,30.01,SSW,201,14.5,17.4,50,0.00,,,0.00,VWS V13.01,2012-01-12 17:17:00,
2012-01-12 11:22:00,27.5,10.9,30.01,WSW,242,15.9,15.9,49,0.00,,,0.00,VWS V13.01,2012-01-12 17:22:00,
2012-01-12 11:27:00,27.9,11.6,30.01,West,263,13.2,13.2,50,0.00,,,0.00,VWS V13.01,2012-01-12 17:27:00,
2012-01-12 11:32:00,27.7,11.0,30.01,West,259,12.8,21.5,49,0.00,,,0.00,VWS V13.01,2012-01-12 17:32:00,
2012-01-12 11:37:00,27.9,11.2,30.01,WSW,244,8.3,12.8,49,0.00,,,0.00,VWS V13.01,2012-01-12 17:37:00,
2012-01-12 11:42:00,27.5,10.9,30.01,West,263,15.0,15.0,49,0.00,,,0.00,VWS V13.01,2012-01-12 17:42:00,
2012-01-12 11:47:00,27.5,10.9,30.01,WSW,249,9.6,14.1,49,0.00,,,0.00,VWS V13.01,2012-01-12 17:47:00,
2012-01-12 11:52:00,27.9,11.2,30.01,WSW,250,13.6,20.1,49,0.00,,,0.00,VWS V13.01,2012-01-12 17:52:00,
2012-01-12 11:57:00,28.6,11.9,30.01,West,264,10.5,15.4,49,0.00,,,0.00,VWS V13.01,2012-01-12 17:57:00,
2012-01-12 12:02:00,29.1,12.4,30.01,West,260,11.0,13.2,49,0.00,,,0.00,VWS V13.01,2012-01-12 18:02:00,
2012-01-12 12:07:00,29.1,12.4,30.01,West,280,16.8,17.4,49,0.00,,,0.00,VWS V13.01,2012-01-12 18:07:00,
2012-01-12 12:12:00,28.6,11.9,30.01,WSW,237,13.2,17.0,49,0.00,,,0.00,VWS V13.01,2012-01-12 18:12:00,
2012-01-12 12:17:00,28.8,12.0,30.01,SW,221,14.1,14.1,49,0.00,,,0.00,VWS V13.01,2012-01-12 18:17:00,
2012-01-12 12:22:00,28.9,12.2,30.01,WSW,247,13.6,15.4,49,0.00,,,0.00,VWS V13.01,2012-01-12 18:22:00,
2012-01-12 12:27:00,29.1,12.4,30.01,West,261,8.7,15.4,49,0.00,,,0.00,VWS V13.01,2012-01-12 18:27:00,
2012-01-12 12:32:00,29.5,12.7,29.98,West,281,8.7,13.2,49,0.00,,,0.00,VWS V13.01,2012-01-12 18:32:00,
2012-01-12 12:37:00,29.3,12.5,29.98,WSW,252,10.1,12.3,49,0.00,,,0.00,VWS V13.01,2012-01-12 18:37:00,
2012-01-12 12:42:00,29.1,11.9,29.98,WNW,288,11.0,15.0,48,0.00,,,0.00,VWS V13.01,2012-01-12 18:42:00,
2012-01-12 12:47:00,29.3,12.1,29.98,West,260,10.5,13.2,48,0.00,,,0.00,VWS V13.01,2012-01-12 18:47:00,
2012-01-12 12:52:00,29.8,13.0,29.98,WSW,243,8.3,11.9,49,0.00,,,0.00,VWS V13.01,2012-01-12 18:52:00,
2012-01-12 12:57:00,30.2,13.4,29.98,WSW,255,13.2,15.4,49,0.00,,,0.00,VWS V13.01,2012-01-12 18:57:00,
2012-01-12 13:02:00,29.3,12.5,29.98,WSW,237,19.7,22.4,49,0.00,,,0.00,VWS V13.01,2012-01-12 19:02:00,
2012-01-12 13:07:00,29.7,12.9,29.98,West,265,13.2,20.1,49,0.00,,,0.00,VWS V13.01,2012-01-12 19:07:00,
2012-01-12 13:12:00,29.5,13.1,29.98,WSW,239,18.8,25.1,50,0.00,,,0.00,VWS V13.01,2012-01-12 19:12:00,
2012-01-12 13:17:00,29.7,13.3,29.98,WSW,258,20.6,20.6,50,0.00,,,0.00,VWS V13.01,2012-01-12 19:17:00,
2012-01-12 13:22:00,29.1,12.4,29.98,WSW,248,17.9,17.9,49,0.00,,,0.00,VWS V13.01,2012-01-12 19:22:00,
2012-01-12 13:27:00,29.1,12.8,29.98,WSW,258,12.8,19.7,50,0.00,,,0.00,VWS V13.01,2012-01-12 19:27:00,
2012-01-12 13:32:00,29.5,13.1,29.98,SW,229,15.0,15.9,50,0.00,,,0.00,VWS V13.01,2012-01-12 19:32:00,
2012-01-12 13:37:00,29.5,13.1,29.98,WSW,239,16.3,16.3,50,0.00,,,0.00,VWS V13.01,2012-01-12 19:37:00,
2012-01-12 13:42:00,29.3,12.5,29.98,SW,236,22.8,25.7,49,0.00,,,0.00,VWS V13.01,2012-01-12 19:42:00,
2012-01-12 13:47:00,29.7,12.9,29.98,SW,231,12.8,15.4,49,0.00,,,0.00,VWS V13.01,2012-01-12 19:47:00,
2012-01-12 13:52:00,30.4,13.5,29.98,WSW,250,15.0,15.0,49,0.00,,,0.00,VWS V13.01,2012-01-12 19:52:00,
2012-01-12 13:57:00,30.2,13.4,29.98,SW,231,13.2,17.0,49,0.00,,,0.00,VWS V13.01,2012-01-12 19:57:00,
2012-01-12 14:02:00,30.2,13.4,30.01,SW,222,13.2,13.2,49,0.00,,,0.00,VWS V13.01,2012-01-12 20:02:00,
2012-01-12 14:07:00,30.7,13.9,30.01,SW,233,21.9,21.9,49,0.00,,,0.00,VWS V13.01,2012-01-12 20:07:00,
2012-01-12 14:12:00,30.7,13.4,30.01,West,266,13.2,19.2,48,0.00,,,0.00,VWS V13.01,2012-01-12 20:12:00,
2012-01-12 14:17:00,30.7,13.4,30.01,SW,223,16.8,16.8,48,0.00,,,0.00,VWS V13.01,2012-01-12 20:17:00,
2012-01-12 14:22:00,30.9,13.6,30.01,West,269,12.8,12.8,48,0.00,,,0.00,VWS V13.01,2012-01-12 20:22:00,
2012-01-12 14:27:00,30.2,13.4,30.01,WSW,238,11.4,13.2,49,0.00,,,0.00,VWS V13.01,2012-01-12 20:27:00,
2012-01-12 14:32:00,30.7,13.4,30.01,WSW,252,15.4,15.4,48,0.00,,,0.00,VWS V13.01,2012-01-12 20:32:00,
2012-01-12 14:37:00,30.7,13.4,30.01,WSW,256,14.5,18.3,48,0.00,,,0.00,VWS V13.01,2012-01-12 20:37:00,
2012-01-12 14:42:00,30.7,13.4,30.01,WSW,252,11.0,11.9,48,0.00,,,0.00,VWS V13.01,2012-01-12 20:42:00,
2012-01-12 14:47:00,30.7,13.4,30.01,WSW,250,13.2,15.4,48,0.00,,,0.00,VWS V13.01,2012-01-12 20:47:00,
2012-01-12 14:52:00,30.4,13.1,30.01,West,262,17.0,17.0,48,0.00,,,0.00,VWS V13.01,2012-01-12 20:52:00,
2012-01-12 14:57:00,30.6,13.7,30.01,West,267,10.1,15.0,49,0.00,,,0.00,VWS V13.01,2012-01-12 20:57:00,
2012-01-12 15:02:00,30.6,13.2,30.01,SW,236,13.2,13.2,48,0.00,,,0.00,VWS V13.01,2012-01-12 21:02:00,
2012-01-12 15:07:00,30.2,13.4,30.01,West,273,11.0,13.2,49,0.00,,,0.00,VWS V13.01,2012-01-12 21:07:00,
2012-01-12 15:12:00,30.4,13.5,30.01,WSW,251,17.0,17.0,49,0.00,,,0.00,VWS V13.01,2012-01-12 21:12:00,
2012-01-12 15:17:00,29.8,13.0,30.03,WSW,243,15.0,15.4,49,0.00,,,0.00,VWS V13.01,2012-01-12 21:17:00,
2012-01-12 15:22:00,30.2,13.4,30.03,WSW,238,23.7,25.1,49,0.00,,,0.00,VWS V13.01,2012-01-12 21:22:00,
2012-01-12 15:27:00,29.8,13.0,30.03,SW,220,19.7,23.3,49,0.00,,,0.00,VWS V13.01,2012-01-12 21:27:00,
2012-01-12 15:32:00,29.7,12.9,30.03,WSW,241,18.8,18.8,49,0.00,,,0.00,VWS V13.01,2012-01-12 21:32:00,
2012-01-12 15:37:00,29.1,12.8,30.03,SSW,211,10.5,18.3,50,0.00,,,0.00,VWS V13.01,2012-01-12 21:37:00,
2012-01-12 15:42:00,29.7,12.9,30.03,WSW,251,12.3,12.3,49,0.00,,,0.00,VWS V13.01,2012-01-12 21:42:00,
2012-01-12 15:47:00,29.8,13.0,30.03,WSW,250,18.3,18.3,49,0.00,,,0.00,VWS V13.01,2012-01-12 21:47:00,
2012-01-12 15:52:00,29.7,12.9,30.03,West,262,14.5,14.5,49,0.00,,,0.00,VWS V13.01,2012-01-12 21:52:00,
2012-01-12 15:57:00,29.7,12.9,30.03,West,267,16.3,17.4,49,0.00,,,0.00,VWS V13.01,2012-01-12 21:57:00,
2012-01-12 16:02:00,29.5,12.7,30.03,West,267,10.1,13.2,49,0.00,,,0.00,VWS V13.01,2012-01-12 22:02:00,
2012-01-12 16:07:00,29.5,12.7,30.03,WSW,238,15.4,16.3,49,0.00,,,0.00,VWS V13.01,2012-01-12 22:07:00,
2012-01-12 16:12:00,29.7,12.9,30.03,SW,231,14.5,14.5,49,0.00,,,0.00,VWS V13.01,2012-01-12 22:12:00,
2012-01-12 16:17:00,29.7,12.9,30.03,WSW,254,17.4,17.4,49,0.00,,,0.00,VWS V13.01,2012-01-12 22:17:00,
2012-01-12 16:22:00,29.7,12.9,30.03,WSW,250,10.1,10.1,49,0.00,,,0.00,VWS V13.01,2012-01-12 22:22:00,
2012-01-12 16:27:00,29.7,12.9,30.03,SW,233,9.6,9.6,49,0.00,,,0.00,VWS V13.01,2012-01-12 22:27:00,
2012-01-12 16:32:00,29.7,12.9,30.03,West,264,11.0,17.4,49,0.00,,,0.00,VWS V13.01,2012-01-12 22:32:00,
2012-01-12 16:37:00,29.7,13.3,30.03,SW,214,11.0,12.8,50,0.00,,,0.00,VWS V13.01,2012-01-12 22:37:00,
2012-01-12 16:42:00,29.7,13.3,30.03,WSW,249,10.1,11.9,50,0.00,,,0.00,VWS V13.01,2012-01-12 22:42:00,
2012-01-12 16:47:00,29.8,13.5,30.03,WSW,251,5.8,12.8,50,0.00,,,0.00,VWS V13.01,2012-01-12 22:47:00,
2012-01-12 16:52:00,29.7,13.3,30.03,WSW,249,10.1,14.1,50,0.00,,,0.00,VWS V13.01,2012-01-12 22:52:00,
2012-01-12 16:57:00,29.7,13.3,30.03,WSW,246,8.3,13.2,50,0.00,,,0.00,VWS V13.01,2012-01-12 22:57:00,
2012-01-12 17:02:00,29.5,13.1,30.03,WSW,245,11.0,12.8,50,0.00,,,0.00,VWS V13.01,2012-01-12 23:02:00,
2012-01-12 17:07:00,29.5,13.1,30.03,West,263,7.6,11.0,50,0.00,,,0.00,VWS V13.01,2012-01-12 23:07:00,
2012-01-12 17:12:00,29.3,13.0,30.03,SW,226,11.0,13.6,50,0.00,,,0.00,VWS V13.01,2012-01-12 23:12:00,
2012-01-12 17:17:00,29.3,13.4,30.03,SW,231,8.1,8.1,51,0.00,,,0.00,VWS V13.01,2012-01-12 23:17:00,
2012-01-12 17:22:00,29.1,12.8,30.03,West,262,10.1,11.0,50,0.00,,,0.00,VWS V13.01,2012-01-12 23:22:00,
2012-01-12 17:27:00,29.1,13.3,30.03,WSW,254,10.5,10.5,51,0.00,,,0.00,VWS V13.01,2012-01-12 23:27:00,
2012-01-12 17:32:00,28.9,13.1,30.03,SW,235,6.7,8.3,51,0.00,,,0.00,VWS V13.01,2012-01-12 23:32:00,
2012-01-12 17:38:00,28.9,13.1,30.03,SW,232,6.3,10.5,51,0.00,,,0.00,VWS V13.01,2012-01-12 23:38:00,
2012-01-12 17:43:00,28.9,13.1,30.03,WSW,238,5.8,10.5,51,0.00,,,0.00,VWS V13.01,2012-01-12 23:43:00,
2012-01-12 17:48:00,28.8,12.9,30.03,West,280,8.1,9.6,51,0.00,,,0.00,VWS V13.01,2012-01-12 23:48:00,
2012-01-12 17:53:00,28.8,13.4,30.03,WSW,258,7.2,12.3,52,0.00,,,0.00,VWS V13.01,2012-01-12 23:53:00,
2012-01-12 17:58:00,28.8,13.4,30.03,SW,233,7.6,8.1,52,0.00,,,0.00,VWS V13.01,2012-01-12 23:58:00,
2012-01-12 18:03:00,28.8,13.4,30.06,SW,231,9.6,9.6,52,0.00,,,0.00,VWS V13.01,2012-01-13 00:03:00,
2012-01-12 18:08:00,28.6,14.1,30.06,SW,235,5.4,5.8,54,0.00,,,0.00,VWS V13.01,2012-01-13 00:08:00,
2012-01-12 18:13:00,28.6,14.1,30.06,SW,234,4.9,4.9,54,0.00,,,0.00,VWS V13.01,2012-01-13 00:13:00,
2012-01-12 18:18:00,28.6,14.1,30.06,WSW,244,5.4,6.3,54,0.00,,,0.00,VWS V13.01,2012-01-13 00:18:00,
2012-01-12 18:23:00,28.6,14.1,30.06,SW,227,4.5,6.3,54,0.00,,,0.00,VWS V13.01,2012-01-13 00:23:00,
2012-01-12 18:28:00,28.4,14.7,30.06,SW,227,4.0,4.5,56,0.00,,,0.00,VWS V13.01,2012-01-13 00:28:00,
2012-01-12 18:32:00,28.0,14.4,30.06,WSW,243,3.6,4.0,56,0.00,,,0.00,VWS V13.01,2012-01-13 00:32:00,
2012-01-12 18:37:00,27.9,14.2,30.06,SW,232,3.1,4.9,56,0.00,,,0.00,VWS V13.01,2012-01-13 00:37:00,
2012-01-12 18:42:00,27.9,14.2,30.06,SW,214,3.6,3.6,56,0.00,,,0.00,VWS V13.01,2012-01-13 00:42:00,
2012-01-12 18:47:00,27.7,14.0,30.06,SW,222,2.7,3.6,56,0.00,,,0.00,VWS V13.01,2012-01-13 00:47:00,
2012-01-12 18:52:00,27.7,14.4,30.06,SW,221,3.1,4.0,57,0.00,,,0.00,VWS V13.01,2012-01-13 00:52:00,
2012-01-12 18:57:00,27.7,14.4,30.06,SW,221,3.6,4.0,57,0.00,,,0.00,VWS V13.01,2012-01-13 00:57:00,
2012-01-12 19:02:00,27.7,14.4,30.06,SW,221,5.4,6.3,57,0.00,,,0.00,VWS V13.01,2012-01-13 01:02:00,
2012-01-12 19:07:00,27.7,14.4,30.06,WSW,243,4.0,4.9,57,0.00,,,0.00,VWS V13.01,2012-01-13 01:07:00,
2012-01-12 19:12:00,27.5,14.3,30.06,SW,235,6.3,6.3,57,0.00,,,0.00,VWS V13.01,2012-01-13 01:12:00,
2012-01-12 19:17:00,27.5,14.3,30.06,SW,233,4.9,4.9,57,0.00,,,0.00,VWS V13.01,2012-01-13 01:17:00,
2012-01-12 19:22:00,27.3,14.1,30.06,SW,234,4.0,4.0,57,0.00,,,0.00,VWS V13.01,2012-01-13 01:22:00,
2012-01-12 19:27:00,27.3,14.1,30.06,SW,228,4.0,4.0,57,0.00,,,0.00,VWS V13.01,2012-01-13 01:27:00,
2012-01-12 19:32:00,27.1,13.9,30.06,SW,222,3.6,4.0,57,0.00,,,0.00,VWS V13.01,2012-01-13 01:32:00,
2012-01-12 19:37:00,27.1,13.9,30.06,SW,214,3.6,3.6,57,0.00,,,0.00,VWS V13.01,2012-01-13 01:37:00,
2012-01-12 19:42:00,27.0,14.2,30.06,WSW,237,2.7,3.1,58,0.00,,,0.00,VWS V13.01,2012-01-13 01:42:00,
2012-01-12 19:47:00,27.0,14.2,30.06,SW,231,2.7,3.6,58,0.00,,,0.00,VWS V13.01,2012-01-13 01:47:00,
2012-01-12 19:52:00,27.0,14.2,30.06,WSW,238,2.7,3.1,58,0.00,,,0.00,VWS V13.01,2012-01-13 01:52:00,
2012-01-12 19:57:00,27.0,14.2,30.06,SW,231,2.2,2.2,58,0.00,,,0.00,VWS V13.01,2012-01-13 01:57:00,
2012-01-12 20:02:00,27.0,14.2,30.06,SW,227,0.0,2.7,58,0.00,,,0.00,VWS V13.01,2012-01-13 02:02:00,
2012-01-12 20:07:00,26.8,14.0,30.06,SW,235,0.0,0.0,58,0.00,,,0.00,VWS V13.01,2012-01-13 02:07:00,
2012-01-12 20:12:00,26.6,14.2,30.06,WSW,237,0.0,0.0,59,0.00,,,0.00,VWS V13.01,2012-01-13 02:12:00,
2012-01-12 20:17:00,26.1,14.5,30.06,WSW,237,0.0,0.0,61,0.00,,,0.00,VWS V13.01,2012-01-13 02:17:00,
2012-01-12 20:22:00,25.3,14.9,30.06,WSW,250,0.0,0.0,64,0.00,,,0.00,VWS V13.01,2012-01-13 02:22:00,
2012-01-12 20:27:00,24.8,15.1,30.06,WSW,251,0.0,0.0,66,0.00,,,0.00,VWS V13.01,2012-01-13 02:27:00,
2012-01-12 20:32:00,24.4,14.7,30.06,NE,46,3.1,3.1,66,0.00,,,0.00,VWS V13.01,2012-01-13 02:32:00,
2012-01-12 20:37:00,24.4,14.7,30.06,NE,47,2.2,2.2,66,0.00,,,0.00,VWS V13.01,2012-01-13 02:37:00,
2012-01-12 20:42:00,24.4,15.1,30.06,NE,47,2.7,2.7,67,0.00,,,0.00,VWS V13.01,2012-01-13 02:42:00,
2012-01-12 20:47:00,24.4,14.4,30.06,NE,47,2.7,2.7,65,0.00,,,0.00,VWS V13.01,2012-01-13 02:47:00,
2012-01-12 20:52:00,24.3,14.9,30.06,NE,47,2.7,2.7,67,0.00,,,0.00,VWS V13.01,2012-01-13 02:52:00,
2012-01-12 20:57:00,24.1,14.4,30.06,NE,47,0.0,0.0,66,0.00,,,0.00,VWS V13.01,2012-01-13 02:57:00,
2012-01-12 21:02:00,23.9,13.9,30.06,NE,47,0.0,0.0,65,0.00,,,0.00,VWS V13.01,2012-01-13 03:02:00,
2012-01-12 21:07:00,24.3,14.2,30.06,NNE,28,0.0,0.0,65,0.00,,,0.00,VWS V13.01,2012-01-13 03:07:00,
2012-01-12 21:12:00,24.6,14.2,30.06,NNE,28,0.0,0.0,64,0.00,,,0.00,VWS V13.01,2012-01-13 03:12:00,
2012-01-12 21:17:00,25.0,13.8,30.06,NNE,28,0.0,0.0,62,0.00,,,0.00,VWS V13.01,2012-01-13 03:17:00,
2012-01-12 21:22:00,25.3,14.2,30.06,NE,37,0.0,0.0,62,0.00,,,0.00,VWS V13.01,2012-01-13 03:22:00,
2012-01-12 21:27:00,25.7,14.1,30.06,SW,215,0.0,0.0,61,0.00,,,0.00,VWS V13.01,2012-01-13 03:27:00,
2012-01-12 21:32:00,25.9,14.3,30.06,SW,216,2.7,3.1,61,0.00,,,0.00,VWS V13.01,2012-01-13 03:32:00,
2012-01-12 21:37:00,26.1,14.1,30.06,SW,232,3.6,3.6,60,0.00,,,0.00,VWS V13.01,2012-01-13 03:37:00,
2012-01-12 21:42:00,25.9,13.9,30.06,SSW,209,0.0,0.0,60,0.00,,,0.00,VWS V13.01,2012-01-13 03:42:00,
2012-01-12 21:47:00,25.9,13.9,30.06,SW,225,2.2,2.2,60,0.00,,,0.00,VWS V13.01,2012-01-13 03:47:00,
2012-01-12 21:52:00,26.1,14.5,30.06,WSW,238,3.1,3.1,61,0.00,,,0.00,VWS V13.01,2012-01-13 03:52:00,
2012-01-12 21:57:00,26.2,14.3,30.06,SW,235,4.9,4.9,60,0.00,,,0.00,VWS V13.01,2012-01-13 03:57:00,
2012-01-12 22:02:00,26.4,14.1,30.06,SW,232,3.1,3.1,59,0.00,,,0.00,VWS V13.01,2012-01-13 04:02:00,
2012-01-12 22:07:00,26.6,14.2,30.06,SW,234,3.6,3.6,59,0.00,,,0.00,VWS V13.01,2012-01-13 04:07:00,
2012-01-12 22:12:00,26.8,14.0,30.06,SW,224,4.9,4.9,58,0.00,,,0.00,VWS V13.01,2012-01-13 04:12:00,
2012-01-12 22:17:00,26.8,14.0,30.06,SW,235,3.6,3.6,58,0.00,,,0.00,VWS V13.01,2012-01-13 04:17:00,
2012-01-12 22:22:00,26.8,14.0,30.06,WSW,240,4.0,4.0,58,0.00,,,0.00,VWS V13.01,2012-01-13 04:22:00,
2012-01-12 22:27:00,26.8,14.0,30.06,WSW,257,4.0,5.4,58,0.00,,,0.00,VWS V13.01,2012-01-13 04:27:00,
2012-01-12 22:32:00,27.0,14.2,30.06,WSW,248,3.1,3.1,58,0.00,,,0.00,VWS V13.01,2012-01-13 04:32:00,
2012-01-12 22:37:00,27.0,13.8,30.06,WSW,244,3.6,3.6,57,0.00,,,0.00,VWS V13.01,2012-01-13 04:37:00,
2012-01-12 22:42:00,27.0,13.8,30.06,WSW,238,3.1,3.1,57,0.00,,,0.00,VWS V13.01,2012-01-13 04:42:00,
2012-01-12 22:47:00,27.0,13.8,30.06,SW,233,4.0,5.4,57,0.00,,,0.00,VWS V13.01,2012-01-13 04:47:00,
2012-01-12 22:52:00,27.0,13.8,30.06,SW,230,4.9,4.9,57,0.00,,,0.00,VWS V13.01,2012-01-13 04:52:00,
2012-01-12 22:57:00,26.8,13.6,30.06,SW,231,6.3,6.7,57,0.00,,,0.00,VWS V13.01,2012-01-13 04:57:00,
2012-01-12 23:00:00,27.0,13.8,30.06,SW,232,5.4,6.7,57,0.00,,,0.00,VWS V13.01,2012-01-13 05:00:00,
2012-01-12 23:01:00,27.0,13.8,30.06,SW,236,6.3,8.1,57,0.00,,,0.00,VWS V13.01,2012-01-13 05:01:00,
2012-01-12 23:05:00,26.8,13.6,30.06,SW,228,5.4,5.8,57,0.00,,,0.00,VWS V13.01,2012-01-13 05:05:00,
2012-01-12 23:10:00,26.4,13.7,30.06,SW,219,4.0,4.9,58,0.00,,,0.00,VWS V13.01,2012-01-13 05:10:00,
2012-01-12 23:15:00,26.4,13.7,30.06,SW,230,5.4,6.3,58,0.00,,,0.00,VWS V13.01,2012-01-13 05:15:00,
2012-01-12 23:21:00,26.2,13.5,30.06,SW,222,4.9,5.8,58,0.00,,,0.00,VWS V13.01,2012-01-13 05:21:00,
2012-01-12 23:26:00,26.1,13.3,30.06,SW,229,4.9,4.9,58,0.00,,,0.00,VWS V13.01,2012-01-13 05:26:00,
2012-01-12 23:31:00,26.1,13.7,30.06,WSW,239,5.4,5.4,59,0.00,,,0.00,VWS V13.01,2012-01-13 05:31:00,
2012-01-12 23:36:00,25.9,13.5,30.06,SW,224,4.0,4.0,59,0.00,,,0.00,VWS V13.01,2012-01-13 05:36:00,
2012-01-12 23:41:00,25.7,13.4,30.06,SW,222,4.5,5.4,59,0.00,,,0.00,VWS V13.01,2012-01-13 05:41:00,
2012-01-12 23:46:00,25.5,12.8,30.06,WSW,238,4.0,5.4,58,0.00,,,0.00,VWS V13.01,2012-01-13 05:46:00,
2012-01-12 23:51:00,25.7,13.0,30.06,SW,227,3.6,4.9,58,0.00,,,0.00,VWS V13.01,2012-01-13 05:51:00,
2012-01-12 23:56:00,25.7,13.0,30.06,SW,234,3.6,4.0,58,0.00,,,0.00,VWS V13.01,2012-01-13 05:56:00,